Flight Track Log - Related Links

Times and Time Zones

All times are in EDT time to prevent confusion due to time zone crossing. See the SWA2336 flight status page for this flight to view local times or setup timezone preferences in your user account.

Time Position Orientation Groundspeed Altitude Reporting Facility
EDT Latitude Longitude Course Direction KTS MPH feet Rate Location/Type
Fri 05:11:27 PM 45.5942 -122.5978 298° West 153 176 500  Level Seattle Center
Fri 05:11:48 PM 45.6022 -122.6192 298° West 161 185 1,400 1,953 Climbing Seattle Center
Fri 05:12:10 PM 45.6097 -122.6439 293° West 177 204 1,900 1,574 Climbing Seattle Center
Fri 05:12:49 PM 45.6231 -122.6881 293° West 191 220 3,000 1,672 Climbing Seattle Center
Fri 05:13:11 PM 45.6358 -122.7197 300° West 236 272 3,600 2,066 Climbing Seattle Center
Fri 05:13:50 PM 45.6583 -122.7736 301° West 249 287 5,100 2,820 Climbing Seattle Center
Fri 05:14:51 PM 45.6261 -122.8619 242° Southwest 276 318 8,300 2,803 Climbing Seattle Center
Fri 05:15:52 PM 45.5678 -122.7983 143° Southeast 304 350 10,800 2,164 Climbing Seattle Center
Fri 05:16:53 PM 45.5219 -122.6772 118° Southeast 354 407 12,700 2,410 Climbing Seattle Center
Fri 05:17:54 PM 45.4697 -122.5375 118° Southeast 373 429 15,700 2,508 Climbing Seattle Center
Fri 05:18:55 PM 45.4197 -122.4056 118° Southeast 380 437 17,800 1,967 Climbing Seattle Center
Fri 05:19:56 PM 45.3711 -122.2781 118° Southeast 400 460 19,700 1,934 Climbing Seattle Center
Fri 05:20:56 PM 45.3150 -122.1325 119° Southeast 416 479 21,700 1,835 Climbing Seattle Center
Fri 05:21:57 PM 45.2567 -121.9817 119° Southeast 430 495 23,400 1,672 Climbing Seattle Center
Fri 05:22:58 PM 45.2142 -121.8197 110° East 450 518 25,100 1,672 Climbing Seattle Center
Fri 05:23:59 PM 45.1711 -121.6508 110° East 453 521 26,800 1,574 Climbing Seattle Center
Fri 05:25:00 PM 45.1175 -121.4428 110° East 468 539 28,300 1,279 Climbing Seattle Center
Fri 05:26:01 PM 45.0711 -121.2661 110° East 477 549 29,400 1,230 Climbing Seattle Center
Fri 05:27:02 PM 45.0236 -121.0839 110° East 491 565 30,800 1,475 Climbing Seattle Center
Fri 05:28:03 PM 44.9750 -120.9053 111° Southeast 491 565 32,400 1,377 Climbing Seattle Center
Fri 05:29:04 PM 44.9283 -120.7275 110° East 488 562 33,600 1,180 Climbing Seattle Center
Fri 05:30:05 PM 44.8797 -120.5508 111° Southeast 486 559 34,800 1,131 Climbing Seattle Center
Fri 05:31:06 PM 44.8317 -120.3753 111° Southeast 486 559 35,900 885 Climbing Seattle Center
Fri 05:32:07 PM 44.7842 -120.2025 111° Southeast 485 558 36,600 541 Climbing Seattle Center
Fri 05:33:08 PM 44.7361 -120.0286 111° Southeast 485 558 37,000 198 Climbing Seattle Center
Fri 05:34:08 PM 44.6794 -119.8225 111° Southeast 483 556 37,000  Level Seattle Center
Fri 05:35:09 PM 44.6303 -119.6492 112° Southeast 483 556 37,000  Level Seattle Center
Fri 05:36:10 PM 44.5808 -119.4786 112° Southeast 480 552 37,000  Level Seattle Center
Fri 05:37:11 PM 44.5306 -119.3078 112° Southeast 479 551 37,000  Level Seattle Center
Fri 05:38:12 PM 44.4806 -119.1389 112° Southeast 475 547 37,000  Level Seattle Center
Fri 05:39:13 PM 44.4306 -118.9700 112° Southeast 475 547 37,000  Level Seattle Center
Fri 05:40:14 PM 44.3811 -118.8028 112° Southeast 472 543 37,000  Level Seattle Center
Fri 05:41:15 PM 44.3297 -118.6356 113° Southeast 471 542 37,000  Level Seattle Center
Fri 05:42:16 PM 44.2775 -118.4683 114° Southeast 471 542 37,000  Level Seattle Center
Fri 05:43:17 PM 44.2269 -118.2986 113° Southeast 472 543 37,000  Level Seattle Center
Fri 05:44:18 PM 44.1697 -118.1128 113° Southeast 473 544 37,000  Level Seattle Center
Fri 05:45:19 PM 44.1181 -117.9447 113° Southeast 474 545 37,000  Level Seattle Center
Fri 05:46:19 PM 44.0642 -117.7764 114° Southeast 475 547 37,000  Level Seattle Center
Fri 05:47:20 PM 44.0106 -117.6092 114° Southeast 476 548 37,000  Level Seattle Center
Fri 05:48:42 PM 43.9350 -117.3744 114° Southeast 472 543 37,000  Level Salt Lake Center
Fri 05:49:44 PM 43.8831 -117.2108 114° Southeast 467 537 37,000  Level Salt Lake Center
Fri 05:50:45 PM 43.8314 -117.0478 114° Southeast 467 537 37,000  Level Salt Lake Center
Fri 05:51:46 PM 43.7667 -116.8483 114° Southeast 473 544 37,000  Level Salt Lake Center
Fri 05:52:48 PM 43.7131 -116.6839 114° Southeast 473 544 37,000  Level Salt Lake Center
Fri 05:53:49 PM 43.6603 -116.5206 114° Southeast 471 542 37,000  Level Salt Lake Center
Fri 05:54:51 PM 43.6069 -116.3553 114° Southeast 472 543 37,000  Level Salt Lake Center
Fri 05:55:52 PM 43.5531 -116.1925 115° Southeast 472 543 37,000  Level Salt Lake Center
Fri 05:56:54 PM 43.5219 -116.0158 104° East 475 547 37,000  Level Salt Lake Center
Fri 05:57:55 PM 43.4903 -115.8411 104° East 475 547 37,000  Level Salt Lake Center
Fri 05:58:56 PM 43.4533 -115.6303 104° East 475 547 37,000  Level Salt Lake Center
Fri 05:59:58 PM 43.4211 -115.4556 104° East 475 547 37,000  Level Salt Lake Center
Fri 06:00:59 PM 43.3892 -115.2800 104° East 475 547 37,000  Level Salt Lake Center
Fri 06:02:01 PM 43.3567 -115.1064 104° East 474 545 37,000  Level Salt Lake Center
Fri 06:03:02 PM 43.3250 -114.9336 104° East 472 543 37,000  Level Salt Lake Center
Fri 06:04:04 PM 43.2931 -114.7617 104° East 470 541 37,000  Level Salt Lake Center
Fri 06:05:05 PM 43.2697 -114.5886 100° East 468 539 37,000  Level Salt Lake Center
Fri 06:06:06 PM 43.2478 -114.4150 100° East 467 537 37,000  Level Salt Lake Center
Fri 06:07:08 PM 43.2208 -114.2089 100° East 463 533 37,000  Level Salt Lake Center
Fri 06:08:09 PM 43.1986 -114.0375 100° East 462 532 37,000  Level Salt Lake Center
Fri 06:09:10 PM 43.1761 -113.8658 100° East 458 527 37,000  Level Salt Lake Center
Fri 06:10:11 PM 43.1519 -113.6964 101° East 458 527 37,000  Level Salt Lake Center
Fri 06:11:13 PM 43.1297 -113.5253 100° East 457 526 37,000  Level Salt Lake Center
Fri 06:12:14 PM 43.1064 -113.3536 100° East 458 527 37,000  Level Salt Lake Center
Fri 06:13:16 PM 43.0839 -113.1828 100° East 458 527 37,000  Level Salt Lake Center
Fri 06:14:17 PM 43.0603 -113.0106 101° East 458 527 37,000  Level Salt Lake Center
Fri 06:15:18 PM 43.0386 -112.8403 100° East 458 527 37,000  Level Salt Lake Center
Fri 06:16:20 PM 43.0122 -112.6350 100° East 458 527 37,000  Level Salt Lake Center
Fri 06:17:21 PM 42.9472 -112.4908 122° Southeast 462 532 37,000  Level Salt Lake Center
Fri 06:18:22 PM 42.8281 -112.4378 162° South 455 524 37,000  Level Salt Lake Center
Fri 06:19:24 PM 42.7031 -112.4069 170° South 456 525 37,000  Level Salt Lake Center
Fri 06:20:25 PM 42.5956 -112.3542 160° South 456 525 37,000  Level Salt Lake Center
Fri 06:21:26 PM 42.5358 -112.1642 113° Southeast 456 525 37,000  Level Salt Lake Center
Fri 06:22:28 PM 42.4917 -112.0031 110° East 456 525 37,000  Level Salt Lake Center
Fri 06:23:29 PM 42.4450 -111.8408 111° Southeast 458 527 37,000  Level Salt Lake Center
Fri 06:24:30 PM 42.3981 -111.6775 111° Southeast 464 534 37,000  Level Salt Lake Center
Fri 06:25:32 PM 42.3511 -111.5139 111° Southeast 464 534 37,000  Level Salt Lake Center
Fri 06:26:33 PM 42.3053 -111.3500 111° Southeast 466 536 37,000  Level Salt Lake Center
Fri 06:27:34 PM 42.2575 -111.1881 112° Southeast 466 536 37,000  Level Salt Lake Center
Fri 06:28:36 PM 42.2533 -111.0169 92° East 453 521 37,000  Level Salt Lake Center
Fri 06:29:37 PM 42.2669 -110.8431 84° East 453 521 37,000  Level Salt Lake Center
Fri 06:30:38 PM 42.2853 -110.6542 82° East 454 522 37,000  Level Salt Lake Center
Fri 06:31:40 PM 42.3050 -110.4933 81° East 454 522 37,000  Level Salt Lake Center
Fri 06:32:41 PM 42.3289 -110.3056 80° East 454 522 37,000  Level Salt Lake Center
Fri 06:33:42 PM 42.3475 -110.1444 81° East 454 522 37,000  Level Salt Lake Center
Fri 06:34:44 PM 42.3683 -109.9836 80° East 454 522 37,000  Level Salt Lake Center
Fri 06:35:45 PM 42.3672 -109.7908 90° East 456 525 37,000  Level Salt Lake Center
Fri 06:36:46 PM 42.3386 -109.6369 104° East 447 514 37,000  Level Salt Lake Center
Fri 06:37:47 PM 42.2956 -109.4875 111° Southeast 444 511 37,000  Level Salt Lake Center
Fri 06:38:49 PM 42.2106 -109.3417 128° Southeast 446 513 37,000  Level Salt Lake Center
Fri 06:39:50 PM 42.1133 -109.2478 144° Southeast 448 516 37,000  Level Salt Lake Center
Fri 06:40:51 PM 41.9889 -109.1639 153° Southeast 448 516 37,000  Level Salt Lake Center
Fri 06:41:53 PM 41.8692 -109.1481 174° South 450 518 37,000  Level Salt Lake Center
Fri 06:42:54 PM 41.7497 -109.1508 181° South 450 518 37,000  Level Salt Lake Center
Fri 06:43:55 PM 41.6133 -109.1517 180° South 443 510 37,000  Level Salt Lake Center
Fri 06:44:56 PM 41.5022 -109.1506 180° South 427 491 37,000  Level Salt Lake Center
Fri 06:45:57 PM 41.3758 -109.1433 178° South 427 491 37,000  Level Salt Lake Center
Fri 06:46:59 PM 41.2678 -109.0858 158° South 440 506 37,000  Level Salt Lake Center
Fri 06:48:00 PM 41.2181 -108.9108 111° Southeast 459 528 37,000  Level Salt Lake Center
Fri 06:49:01 PM 41.1814 -108.7558 107° East 460 529 37,000  Level Salt Lake Center
Fri 06:50:02 PM 41.1372 -108.5744 108° East 463 533 37,000  Level Salt Lake Center
Fri 06:51:04 PM 41.1139 -108.4108 101° East 469 540 37,000  Level Salt Lake Center
Fri 06:52:05 PM 41.1022 -108.2136 94° East 479 551 37,000  Level Salt Lake Center
Fri 06:52:35 PM 41.0981 -108.1294 94° East 480 552 37,000  Level Denver Center
Fri 06:53:36 PM 41.0886 -107.9589 94° East 484 557 37,000  Level Denver Center
Fri 06:54:38 PM 41.0958 -107.7906 87° East 487 560 37,000  Level Denver Center
Fri 06:55:39 PM 41.1664 -107.6192 61° Northeast 476 548 37,000  Level Denver Center
Fri 06:56:40 PM 41.2269 -107.4708 61° Northeast 478 550 37,000  Level Denver Center
Fri 06:57:42 PM 41.2178 -107.2694 93° East 495 570 37,000  Level Denver Center
Fri 06:58:43 PM 41.1900 -107.0992 102° East 495 570 37,000  Level Denver Center
Fri 06:59:44 PM 41.1528 -106.9325 106° East 491 565 37,000  Level Denver Center
Fri 07:00:45 PM 41.1014 -106.7422 110° East 490 564 37,000  Level Denver Center
Fri 07:01:47 PM 41.0639 -106.5781 107° East 490 564 37,000  Level Denver Center
Fri 07:02:48 PM 41.1536 -106.4281 52° Northeast 490 564 37,000 -885 Level Denver Center
Fri 07:03:49 PM 41.2647 -106.4592 348° North 451 519 35,200 -1,623 Descending Denver Center
Fri 07:04:50 PM 41.2775 -106.5961 277° West 414 476 33,700 -1,268 Descending Denver Center
Fri 07:05:52 PM 41.1519 -106.6153 187° South 450 518 32,600 -976 Descending Denver Center
Fri 07:06:53 PM 41.0850 -106.4678 121° Southeast 496 571 31,700 -984 Descending Denver Center
Fri 07:07:54 PM 41.0200 -106.2850 115° Southeast 493 567 30,600 -1,033 Descending Denver Center
Fri 07:08:55 PM 40.9608 -106.1228 116° Southeast 494 568 29,600 -976 Descending Denver Center
Fri 07:09:57 PM 40.9044 -105.9589 114° Southeast 492 566 28,600 -1,024 Descending Denver Center
Fri 07:10:58 PM 40.8497 -105.8036 115° Southeast 473 544 27,500 -1,082 Descending Denver Center
Fri 07:11:59 PM 40.8003 -105.6533 113° Southeast 453 521 26,400 -1,082 Descending Denver Center
Fri 07:13:00 PM 40.7619 -105.5006 108° East 444 511 25,300 -1,268 Descending Denver Center
Fri 07:14:02 PM 40.7311 -105.3553 106° East 415 478 23,800 -1,659 Descending Denver Center
Fri 07:15:03 PM 40.7067 -105.2111 103° East 412 474 21,900 -2,066 Descending Denver Center
Fri 07:16:04 PM 40.7028 -105.0408 92° East 410 472 19,600 -2,016 Descending Denver Center
Fri 07:17:05 PM 40.7025 -104.8947 90° East 406 467 17,800 -1,820 Descending Denver Center
Fri 07:18:06 PM 40.6625 -104.7736 113° Southeast 387 445 15,900 -1,902 Descending Denver Center
Fri 07:19:08 PM 40.5769 -104.7003 147° Southeast 366 421 13,900 -1,317 Descending Denver Center
Fri 07:20:09 PM 40.4797 -104.6800 171° South 317 365 13,200 -541 Descending Denver Center
Fri 07:21:10 PM 40.4056 -104.6861 184° South 268 308 12,800 -885 Descending Denver Center
Fri 07:22:11 PM 40.3342 -104.6881 181° South 256 295 11,400 -1,328 Descending Denver Center
Fri 07:23:12 PM 40.2661 -104.6894 181° South 250 288 10,100 -1,317 Descending Denver Center
Fri 07:24:14 PM 40.1931 -104.6906 181° South 244 281 8,700 -1,171 Descending Denver Center
Fri 07:25:15 PM 40.1264 -104.6919 181° South 241 277 7,700 -885 Descending Denver Center
Fri 07:26:16 PM 40.0611 -104.6936 181° South 237 273 6,900 -344 Descending Denver Center
Fri 07:27:17 PM 40.0042 -104.6939 180° South 206 237 7,000 -246 Climbing Denver Center
Fri 07:28:18 PM 39.9536 -104.6947 181° South 169 194 6,400 -683 Descending Denver Center
Fri 07:29:20 PM 39.9122 -104.6961 181° South 154 177 5,600 -537 Descending Denver Center
Fri 07:30:21 PM 39.8739 -104.6961 180° South 144 166 5,300 -295 Descending Denver Center
Fri 07:32:00 PM 39.8617 -104.6732 180° South  Level Estimated
Fri 07:39:00 PM 39.8617 -104.6732 180° South  Level Estimated
Fri 07:40:00 PM 39.8617 -104.6732 180° South  Level Estimated

Login

Don't have an account? Register now (free) for customized features, flight alerts, and more!